sensor_id;sensor_type;location;lat;lon;timestamp;pressure;altitude;pressure_sealevel;temperature;humidity
49063;BME280;34876;51.464;-0.150;2023-09-18T00:03:34;100333.08;;;24.22;53.98
49063;BME280;34876;51.464;-0.150;2023-09-18T00:06:03;100324.35;;;24.21;53.99
49063;BME280;34876;51.464;-0.150;2023-09-18T00:08:32;100327.67;;;24.19;54.04
49063;BME280;34876;51.464;-0.150;2023-09-18T00:11:01;100318.98;;;24.18;54.03
49063;BME280;34876;51.464;-0.150;2023-09-18T00:13:29;100325.86;;;24.17;54.03
49063;BME280;34876;51.464;-0.150;2023-09-18T00:15:59;100313.78;;;24.17;54.03
49063;BME280;34876;51.464;-0.150;2023-09-18T00:18:29;100307.34;;;24.16;54.03
49063;BME280;34876;51.464;-0.150;2023-09-18T00:20:58;100292.87;;;24.13;54.11
49063;BME280;34876;51.464;-0.150;2023-09-18T00:23:29;100268.14;;;24.13;54.07
49063;BME280;34876;51.464;-0.150;2023-09-18T00:25:59;100254.86;;;24.14;54.04
49063;BME280;34876;51.464;-0.150;2023-09-18T00:28:29;100244.38;;;24.15;54.00
49063;BME280;34876;51.464;-0.150;2023-09-18T00:30:58;100239.56;;;24.14;54.01
49063;BME280;34876;51.464;-0.150;2023-09-18T00:33:33;100248.03;;;24.15;53.95
49063;BME280;34876;51.464;-0.150;2023-09-18T00:36:08;100250.50;;;24.15;53.95
49063;BME280;34876;51.464;-0.150;2023-09-18T00:38:41;100244.29;;;24.14;53.94
49063;BME280;34876;51.464;-0.150;2023-09-18T00:41:11;100239.81;;;24.14;53.92
49063;BME280;34876;51.464;-0.150;2023-09-18T00:43:41;100225.72;;;24.13;53.95
49063;BME280;34876;51.464;-0.150;2023-09-18T00:46:12;100227.02;;;24.13;53.93
49063;BME280;34876;51.464;-0.150;2023-09-18T00:48:42;100225.05;;;24.13;53.89
49063;BME280;34876;51.464;-0.150;2023-09-18T00:51:12;100221.16;;;24.13;53.90
49063;BME280;34876;51.464;-0.150;2023-09-18T00:53:44;100219.41;;;24.12;53.90
49063;BME280;34876;51.464;-0.150;2023-09-18T00:56:16;100213.31;;;24.13;53.87
49063;BME280;34876;51.464;-0.150;2023-09-18T00:58:46;100213.33;;;24.14;53.84
49063;BME280;34876;51.464;-0.150;2023-09-18T01:01:18;100210.69;;;24.13;53.84
49063;BME280;34876;51.464;-0.150;2023-09-18T01:03:49;100207.44;;;24.11;53.89
49063;BME280;34876;51.464;-0.150;2023-09-18T01:06:18;100201.58;;;24.13;53.83
49063;BME280;34876;51.464;-0.150;2023-09-18T01:08:48;100193.30;;;24.11;53.88
49063;BME280;34876;51.464;-0.150;2023-09-18T01:11:24;100190.24;;;24.12;53.84
49063;BME280;34876;51.464;-0.150;2023-09-18T01:14:06;100184.44;;;24.11;53.85
49063;BME280;34876;51.464;-0.150;2023-09-18T01:16:50;100176.58;;;24.11;53.83
49063;BME280;34876;51.464;-0.150;2023-09-18T01:19:35;100174.13;;;24.10;53.83
49063;BME280;34876;51.464;-0.150;2023-09-18T01:22:07;100169.78;;;24.11;53.80
49063;BME280;34876;51.464;-0.150;2023-09-18T01:24:38;100160.01;;;24.11;53.77
49063;BME280;34876;51.464;-0.150;2023-09-18T01:27:10;100145.10;;;24.12;53.77
49063;BME280;34876;51.464;-0.150;2023-09-18T01:29:41;100131.75;;;24.11;53.75
49063;BME280;34876;51.464;-0.150;2023-09-18T01:32:10;100126.00;;;24.12;53.73
49063;BME280;34876;51.464;-0.150;2023-09-18T01:34:45;100122.79;;;24.12;53.71
49063;BME280;34876;51.464;-0.150;2023-09-18T01:37:16;100123.21;;;24.10;53.74
49063;BME280;34876;51.464;-0.150;2023-09-18T01:39:49;100100.09;;;24.09;53.74
49063;BME280;34876;51.464;-0.150;2023-09-18T01:42:21;100078.40;;;24.08;53.78
49063;BME280;34876;51.464;-0.150;2023-09-18T01:45:10;100069.70;;;24.10;53.70
49063;BME280;34876;51.464;-0.150;2023-09-18T01:47:44;100069.63;;;24.11;53.66
49063;BME280;34876;51.464;-0.150;2023-09-18T01:50:15;100064.90;;;24.11;53.65
49063;BME280;34876;51.464;-0.150;2023-09-18T01:52:56;100047.98;;;24.11;53.64
49063;BME280;34876;51.464;-0.150;2023-09-18T01:55:29;100032.62;;;24.11;53.63
49063;BME280;34876;51.464;-0.150;2023-09-18T01:57:59;100028.21;;;24.12;53.59
49063;BME280;34876;51.464;-0.150;2023-09-18T02:00:30;100030.70;;;24.12;53.58
49063;BME280;34876;51.464;-0.150;2023-09-18T02:03:01;100064.87;;;24.11;53.62
49063;BME280;34876;51.464;-0.150;2023-09-18T02:05:31;100067.96;;;24.12;53.59
49063;BME280;34876;51.464;-0.150;2023-09-18T02:07:59;100070.95;;;24.11;53.63
49063;BME280;34876;51.464;-0.150;2023-09-18T02:10:28;100067.03;;;24.13;53.56
49063;BME280;34876;51.464;-0.150;2023-09-18T02:13:02;100061.91;;;24.12;53.58
49063;BME280;34876;51.464;-0.150;2023-09-18T02:15:32;100058.09;;;24.12;53.59
49063;BME280;34876;51.464;-0.150;2023-09-18T02:18:03;100053.18;;;24.11;53.60
49063;BME280;34876;51.464;-0.150;2023-09-18T02:20:41;100052.42;;;24.11;53.60
49063;BME280;34876;51.464;-0.150;2023-09-18T02:23:10;100050.11;;;24.10;53.62
49063;BME280;34876;51.464;-0.150;2023-09-18T02:25:41;100054.62;;;24.13;53.55
49063;BME280;34876;51.464;-0.150;2023-09-18T02:28:10;100049.71;;;24.11;53.60
49063;BME280;34876;51.464;-0.150;2023-09-18T02:30:40;100054.92;;;24.12;53.58
49063;BME280;34876;51.464;-0.150;2023-09-18T02:33:10;100053.99;;;24.12;53.57
49063;BME280;34876;51.464;-0.150;2023-09-18T02:35:40;100048.16;;;24.11;53.58
49063;BME280;34876;51.464;-0.150;2023-09-18T02:38:09;100052.63;;;24.12;53.56
49063;BME280;34876;51.464;-0.150;2023-09-18T02:40:41;100049.54;;;24.12;53.55
49063;BME280;34876;51.464;-0.150;2023-09-18T02:43:10;100046.28;;;24.11;53.57
49063;BME280;34876;51.464;-0.150;2023-09-18T02:45:40;100045.51;;;24.11;53.54
49063;BME280;34876;51.464;-0.150;2023-09-18T02:48:10;100042.53;;;24.11;53.56
49063;BME280;34876;51.464;-0.150;2023-09-18T02:50:39;100043.10;;;24.10;53.57
49063;BME280;34876;51.464;-0.150;2023-09-18T02:53:18;100040.44;;;24.10;53.57
49063;BME280;34876;51.464;-0.150;2023-09-18T02:55:50;100036.10;;;24.09;53.58
49063;BME280;34876;51.464;-0.150;2023-09-18T02:58:20;100031.52;;;24.09;53.57
49063;BME280;34876;51.464;-0.150;2023-09-18T03:00:57;100029.73;;;24.09;53.57
49063;BME280;34876;51.464;-0.150;2023-09-18T03:03:27;100027.36;;;24.08;53.60
49063;BME280;34876;51.464;-0.150;2023-09-18T03:06:01;100029.62;;;24.08;53.59
49063;BME280;34876;51.464;-0.150;2023-09-18T03:08:32;100035.64;;;24.07;53.58
49063;BME280;34876;51.464;-0.150;2023-09-18T03:11:01;100038.57;;;24.07;53.57
49063;BME280;34876;51.464;-0.150;2023-09-18T03:13:30;100039.13;;;24.07;53.56
49063;BME280;34876;51.464;-0.150;2023-09-18T03:16:05;100042.94;;;24.08;53.52
49063;BME280;34876;51.464;-0.150;2023-09-18T03:18:34;100040.46;;;24.08;53.48
49063;BME280;34876;51.464;-0.150;2023-09-18T03:21:03;100038.17;;;24.07;53.51
49063;BME280;34876;51.464;-0.150;2023-09-18T03:23:32;100044.86;;;24.08;53.47
49063;BME280;34876;51.464;-0.150;2023-09-18T03:26:01;100046.41;;;24.09;53.42
49063;BME280;34876;51.464;-0.150;2023-09-18T03:28:31;100046.98;;;24.07;53.45
49063;BME280;34876;51.464;-0.150;2023-09-18T03:31:01;100046.22;;;24.06;53.45
49063;BME280;34876;51.464;-0.150;2023-09-18T03:33:30;100051.78;;;24.07;53.43
49063;BME280;34876;51.464;-0.150;2023-09-18T03:35:59;100054.61;;;24.08;53.37
49063;BME280;34876;51.464;-0.150;2023-09-18T03:38:29;100056.16;;;24.09;53.33
49063;BME280;34876;51.464;-0.150;2023-09-18T03:40:59;100051.26;;;24.08;53.35
49063;BME280;34876;51.464;-0.150;2023-09-18T03:43:34;100056.70;;;24.07;53.35
49063;BME280;34876;51.464;-0.150;2023-09-18T03:46:04;100054.71;;;24.06;53.40
49063;BME280;34876;51.464;-0.150;2023-09-18T03:48:33;100053.41;;;24.07;53.34
49063;BME280;34876;51.464;-0.150;2023-09-18T03:51:02;100057.44;;;24.08;53.30
49063;BME280;34876;51.464;-0.150;2023-09-18T03:53:33;100055.38;;;24.07;53.30
49063;BME280;34876;51.464;-0.150;2023-09-18T03:56:03;100053.35;;;24.08;53.25
49063;BME280;34876;51.464;-0.150;2023-09-18T03:58:32;100052.13;;;24.08;53.26
49063;BME280;34876;51.464;-0.150;2023-09-18T04:01:01;100047.50;;;24.08;53.24
49063;BME280;34876;51.464;-0.150;2023-09-18T04:03:30;100051.76;;;24.08;53.24
49063;BME280;34876;51.464;-0.150;2023-09-18T04:06:01;100053.53;;;24.07;53.24
49063;BME280;34876;51.464;-0.150;2023-09-18T04:08:30;100051.57;;;24.07;53.21
49063;BME280;34876;51.464;-0.150;2023-09-18T04:11:01;100049.20;;;24.06;53.21
49063;BME280;34876;51.464;-0.150;2023-09-18T04:13:30;100051.60;;;24.06;53.21
49063;BME280;34876;51.464;-0.150;2023-09-18T04:15:59;100053.91;;;24.07;53.19
49063;BME280;34876;51.464;-0.150;2023-09-18T04:18:29;100056.74;;;24.06;53.18
49063;BME280;34876;51.464;-0.150;2023-09-18T04:20:58;100061.75;;;24.06;53.16
49063;BME280;34876;51.464;-0.150;2023-09-18T04:23:27;100058.57;;;24.07;53.15
49063;BME280;34876;51.464;-0.150;2023-09-18T04:25:56;100054.69;;;24.07;53.13
49063;BME280;34876;51.464;-0.150;2023-09-18T04:28:25;100053.47;;;24.07;53.09
49063;BME280;34876;51.464;-0.150;2023-09-18T04:30:54;100051.71;;;24.07;53.06
49063;BME280;34876;51.464;-0.150;2023-09-18T04:33:23;100043.34;;;24.06;53.12
49063;BME280;34876;51.464;-0.150;2023-09-18T04:35:52;100046.82;;;24.05;53.13
49063;BME280;34876;51.464;-0.150;2023-09-18T04:38:21;100045.91;;;24.05;53.12
49063;BME280;34876;51.464;-0.150;2023-09-18T04:40:49;100044.63;;;24.04;53.13
49063;BME280;34876;51.464;-0.150;2023-09-18T04:43:25;100048.40;;;24.05;53.08
49063;BME280;34876;51.464;-0.150;2023-09-18T04:45:55;100049.58;;;24.06;53.04
49063;BME280;34876;51.464;-0.150;2023-09-18T04:48:24;100047.21;;;24.05;53.08
49063;BME280;34876;51.464;-0.150;2023-09-18T04:50:53;100048.89;;;24.04;53.08
49063;BME280;34876;51.464;-0.150;2023-09-18T04:53:22;100042.82;;;24.06;53.02
49063;BME280;34876;51.464;-0.150;2023-09-18T04:55:53;100042.01;;;24.05;53.02
49063;BME280;34876;51.464;-0.150;2023-09-18T04:58:23;100040.24;;;24.04;53.04
49063;BME280;34876;51.464;-0.150;2023-09-18T05:00:54;100038.90;;;24.05;53.03
49063;BME280;34876;51.464;-0.150;2023-09-18T05:03:23;100040.13;;;24.04;53.05
49063;BME280;34876;51.464;-0.150;2023-09-18T05:05:52;100037.66;;;24.04;53.04
49063;BME280;34876;51.464;-0.150;2023-09-18T05:08:23;100026.05;;;24.03;53.05
49063;BME280;34876;51.464;-0.150;2023-09-18T05:10:52;100029.06;;;24.02;53.10
49063;BME280;34876;51.464;-0.150;2023-09-18T05:13:21;100032.74;;;23.82;53.69
49063;BME280;34876;51.464;-0.150;2023-09-18T05:15:50;100034.28;;;23.99;53.22
49063;BME280;34876;51.464;-0.150;2023-09-18T05:18:19;100034.66;;;24.01;53.13
49063;BME280;34876;51.464;-0.150;2023-09-18T05:20:49;100028.82;;;24.02;53.09
49063;BME280;34876;51.464;-0.150;2023-09-18T05:23:18;100032.37;;;24.02;53.09
49063;BME280;34876;51.464;-0.150;2023-09-18T05:25:47;100032.86;;;24.02;53.05
49063;BME280;34876;51.464;-0.150;2023-09-18T05:28:16;100031.94;;;24.03;53.00
49063;BME280;34876;51.464;-0.150;2023-09-18T05:30:45;100036.99;;;24.03;53.02
49063;BME280;34876;51.464;-0.150;2023-09-18T05:33:21;100034.45;;;24.03;53.00
49063;BME280;34876;51.464;-0.150;2023-09-18T05:35:51;100032.34;;;24.02;53.02
49063;BME280;34876;51.464;-0.150;2023-09-18T05:38:25;100033.67;;;24.03;52.98
49063;BME280;34876;51.464;-0.150;2023-09-18T05:40:55;100034.14;;;24.02;53.01
49063;BME280;34876;51.464;-0.150;2023-09-18T05:43:23;100030.25;;;24.02;52.98
49063;BME280;34876;51.464;-0.150;2023-09-18T05:45:54;100028.80;;;24.03;52.96
49063;BME280;34876;51.464;-0.150;2023-09-18T05:48:24;100033.31;;;24.02;52.97
49063;BME280;34876;51.464;-0.150;2023-09-18T05:50:53;100039.14;;;24.02;52.98
49063;BME280;34876;51.464;-0.150;2023-09-18T05:53:22;100039.14;;;24.02;52.97
49063;BME280;34876;51.464;-0.150;2023-09-18T05:55:51;100041.88;;;24.02;52.97
49063;BME280;34876;51.464;-0.150;2023-09-18T05:58:21;100039.67;;;24.01;52.98
49063;BME280;34876;51.464;-0.150;2023-09-18T06:00:50;100038.87;;;24.02;52.94
49063;BME280;34876;51.464;-0.150;2023-09-18T06:03:19;100035.01;;;24.02;52.94
49063;BME280;34876;51.464;-0.150;2023-09-18T06:05:49;100035.45;;;24.01;52.96
49063;BME280;34876;51.464;-0.150;2023-09-18T06:08:19;100041.72;;;24.01;52.94
49063;BME280;34876;51.464;-0.150;2023-09-18T06:10:48;100035.08;;;24.00;52.95
49063;BME280;34876;51.464;-0.150;2023-09-18T06:13:19;100029.94;;;24.01;52.93
49063;BME280;34876;51.464;-0.150;2023-09-18T06:15:49;100029.09;;;23.99;52.97
49063;BME280;34876;51.464;-0.150;2023-09-18T06:18:18;100028.48;;;24.01;52.92
49063;BME280;34876;51.464;-0.150;2023-09-18T06:20:52;100024.23;;;24.00;52.94
49063;BME280;34876;51.464;-0.150;2023-09-18T06:23:25;100024.88;;;23.99;52.94
49063;BME280;34876;51.464;-0.150;2023-09-18T06:25:55;100023.56;;;24.01;52.89
49063;BME280;34876;51.464;-0.150;2023-09-18T06:28:26;100027.26;;;24.01;52.87
49063;BME280;34876;51.464;-0.150;2023-09-18T06:30:55;100030.31;;;24.02;52.85
49063;BME280;34876;51.464;-0.150;2023-09-18T06:33:25;100037.20;;;24.02;52.83
49063;BME280;34876;51.464;-0.150;2023-09-18T06:35:55;100037.33;;;24.01;52.84
49063;BME280;34876;51.464;-0.150;2023-09-18T06:38:26;100036.17;;;24.04;52.75
49063;BME280;34876;51.464;-0.150;2023-09-18T06:40:55;100035.95;;;24.03;52.79
49063;BME280;34876;51.464;-0.150;2023-09-18T06:43:25;100035.45;;;24.03;52.76
49063;BME280;34876;51.464;-0.150;2023-09-18T06:45:55;100034.22;;;24.04;52.72
49063;BME280;34876;51.464;-0.150;2023-09-18T06:48:24;100036.07;;;24.06;52.64
49063;BME280;34876;51.464;-0.150;2023-09-18T06:50:53;100035.14;;;24.11;52.49
49063;BME280;34876;51.464;-0.150;2023-09-18T06:53:24;100032.44;;;24.13;52.45
49063;BME280;34876;51.464;-0.150;2023-09-18T06:55:55;100030.36;;;24.17;52.32
49063;BME280;34876;51.464;-0.150;2023-09-18T06:58:25;100026.43;;;24.27;52.03
49063;BME280;34876;51.464;-0.150;2023-09-18T07:00:56;100028.23;;;24.39;51.66
49063;BME280;34876;51.464;-0.150;2023-09-18T07:03:26;100029.11;;;24.35;51.77
49063;BME280;34876;51.464;-0.150;2023-09-18T07:05:55;100026.98;;;24.49;51.40
49063;BME280;34876;51.464;-0.150;2023-09-18T07:08:28;100027.93;;;24.48;51.44
49063;BME280;34876;51.464;-0.150;2023-09-18T07:10:59;100026.39;;;24.36;51.70
49063;BME280;34876;51.464;-0.150;2023-09-18T07:13:31;100030.94;;;24.25;52.02
49063;BME280;34876;51.464;-0.150;2023-09-18T07:16:01;100029.27;;;24.23;52.10
49063;BME280;34876;51.464;-0.150;2023-09-18T07:18:30;100028.87;;;24.23;52.13
49063;BME280;34876;51.464;-0.150;2023-09-18T07:20:59;100024.60;;;24.19;52.21
49063;BME280;34876;51.464;-0.150;2023-09-18T07:23:29;100022.59;;;24.17;52.27
49063;BME280;34876;51.464;-0.150;2023-09-18T07:25:57;100027.18;;;24.18;52.25
49063;BME280;34876;51.464;-0.150;2023-09-18T07:28:27;100031.05;;;24.15;52.36
49063;BME280;34876;51.464;-0.150;2023-09-18T07:30:55;100033.00;;;24.12;52.40
49063;BME280;34876;51.464;-0.150;2023-09-18T07:33:28;100031.78;;;24.14;52.36
49063;BME280;34876;51.464;-0.150;2023-09-18T07:35:58;100030.86;;;24.17;52.26
49063;BME280;34876;51.464;-0.150;2023-09-18T07:38:27;100031.39;;;24.54;51.25
49063;BME280;34876;51.464;-0.150;2023-09-18T07:40:58;100027.68;;;24.68;50.79
49063;BME280;34876;51.464;-0.150;2023-09-18T07:43:27;100027.07;;;24.57;51.07
49063;BME280;34876;51.464;-0.150;2023-09-18T07:45:57;100029.07;;;24.52;52.14
49063;BME280;34876;51.464;-0.150;2023-09-18T07:48:27;100029.43;;;24.47;51.36
49063;BME280;34876;51.464;-0.150;2023-09-18T07:50:56;100024.41;;;24.35;51.68
49063;BME280;34876;51.464;-0.150;2023-09-18T07:53:25;100022.69;;;24.30;51.79
49063;BME280;34876;51.464;-0.150;2023-09-18T07:55:56;100028.06;;;24.02;53.29
49063;BME280;34876;51.464;-0.150;2023-09-18T07:58:26;100021.16;;;24.47;51.39
49063;BME280;34876;51.464;-0.150;2023-09-18T08:00:55;100013.77;;;24.93;50.12
49063;BME280;34876;51.464;-0.150;2023-09-18T08:03:25;100011.87;;;25.06;49.72
49063;BME280;34876;51.464;-0.150;2023-09-18T08:05:55;100011.01;;;24.85;51.02
49063;BME280;34876;51.464;-0.150;2023-09-18T08:08:24;100011.75;;;25.20;49.37
49063;BME280;34876;51.464;-0.150;2023-09-18T08:10:54;100014.89;;;25.31;49.01
49063;BME280;34876;51.464;-0.150;2023-09-18T08:13:24;100014.55;;;25.02;49.74
49063;BME280;34876;51.464;-0.150;2023-09-18T08:15:53;100015.29;;;24.77;50.41
49063;BME280;34876;51.464;-0.150;2023-09-18T08:18:22;100017.83;;;24.48;51.21
49063;BME280;34876;51.464;-0.150;2023-09-18T08:20:51;100013.85;;;24.47;51.27
49063;BME280;34876;51.464;-0.150;2023-09-18T08:23:20;100013.20;;;24.48;51.24
49063;BME280;34876;51.464;-0.150;2023-09-18T08:25:51;100011.31;;;24.46;51.30
49063;BME280;34876;51.464;-0.150;2023-09-18T08:28:21;100012.06;;;24.48;51.22
49063;BME280;34876;51.464;-0.150;2023-09-18T08:30:51;100005.06;;;24.42;51.37
49063;BME280;34876;51.464;-0.150;2023-09-18T08:33:21;100003.10;;;24.36;51.55
49063;BME280;34876;51.464;-0.150;2023-09-18T08:35:50;100003.78;;;24.36;51.57
49063;BME280;34876;51.464;-0.150;2023-09-18T08:38:19;99998.29;;;24.33;51.62
49063;BME280;34876;51.464;-0.150;2023-09-18T08:40:48;99994.25;;;24.33;51.64
49063;BME280;34876;51.464;-0.150;2023-09-18T08:43:19;99986.98;;;24.32;51.66
49063;BME280;34876;51.464;-0.150;2023-09-18T08:45:52;99992.01;;;24.28;51.77
49063;BME280;34876;51.464;-0.150;2023-09-18T08:48:22;99988.88;;;24.25;51.84
49063;BME280;34876;51.464;-0.150;2023-09-18T08:50:51;99990.45;;;24.23;51.90
49063;BME280;34876;51.464;-0.150;2023-09-18T08:53:21;99989.41;;;24.20;51.96
49063;BME280;34876;51.464;-0.150;2023-09-18T08:55:51;99988.88;;;24.18;52.07
49063;BME280;34876;51.464;-0.150;2023-09-18T08:58:21;99986.54;;;24.16;52.10
49063;BME280;34876;51.464;-0.150;2023-09-18T09:00:49;99985.69;;;24.14;52.17
49063;BME280;34876;51.464;-0.150;2023-09-18T09:03:18;99973.75;;;24.09;52.29
49063;BME280;34876;51.464;-0.150;2023-09-18T09:05:47;99970.00;;;24.15;52.11
49063;BME280;34876;51.464;-0.150;2023-09-18T09:08:16;99965.90;;;24.19;51.99
49063;BME280;34876;51.464;-0.150;2023-09-18T09:10:45;99962.69;;;24.25;51.83
49063;BME280;34876;51.464;-0.150;2023-09-18T09:13:14;99955.13;;;24.23;51.86
49063;BME280;34876;51.464;-0.150;2023-09-18T09:15:45;99946.65;;;24.25;51.82
49063;BME280;34876;51.464;-0.150;2023-09-18T09:18:15;99949.02;;;24.22;51.92
49063;BME280;34876;51.464;-0.150;2023-09-18T09:20:53;99936.69;;;24.21;51.95
49063;BME280;34876;51.464;-0.150;2023-09-18T09:23:23;99924.64;;;24.24;51.85
49063;BME280;34876;51.464;-0.150;2023-09-18T09:25:53;99920.06;;;24.23;51.89
49063;BME280;34876;51.464;-0.150;2023-09-18T09:28:30;99915.10;;;24.15;52.15
49063;BME280;34876;51.464;-0.150;2023-09-18T09:31:01;99908.47;;;24.23;51.91
49063;BME280;34876;51.464;-0.150;2023-09-18T09:33:33;99904.24;;;24.29;51.74
49063;BME280;34876;51.464;-0.150;2023-09-18T09:36:05;99896.20;;;24.55;51.06
49063;BME280;34876;51.464;-0.150;2023-09-18T09:38:35;99887.36;;;24.63;50.81
49063;BME280;34876;51.464;-0.150;2023-09-18T09:41:04;99885.00;;;24.77;50.43
49063;BME280;34876;51.464;-0.150;2023-09-18T09:43:34;99880.28;;;24.61;50.97
49063;BME280;34876;51.464;-0.150;2023-09-18T09:46:04;99880.91;;;24.42;51.35
49063;BME280;34876;51.464;-0.150;2023-09-18T09:48:33;99871.51;;;24.40;51.45
49063;BME280;34876;51.464;-0.150;2023-09-18T09:51:03;99864.81;;;24.43;51.34
49063;BME280;34876;51.464;-0.150;2023-09-18T09:53:47;99857.39;;;24.43;51.34
49063;BME280;34876;51.464;-0.150;2023-09-18T09:56:18;99854.80;;;24.39;51.44
49063;BME280;34876;51.464;-0.150;2023-09-18T09:59:00;99848.66;;;24.42;51.36
49063;BME280;34876;51.464;-0.150;2023-09-18T10:01:31;99843.93;;;24.41;51.37
49063;BME280;34876;51.464;-0.150;2023-09-18T10:04:04;99839.35;;;24.37;51.46
49063;BME280;34876;51.464;-0.150;2023-09-18T10:06:34;99838.34;;;24.32;51.59
49063;BME280;34876;51.464;-0.150;2023-09-18T10:09:04;99834.96;;;24.31;51.63
49063;BME280;34876;51.464;-0.150;2023-09-18T10:11:41;99830.39;;;24.16;52.01
49063;BME280;34876;51.464;-0.150;2023-09-18T10:14:12;99829.79;;;24.20;51.91
49063;BME280;34876;51.464;-0.150;2023-09-18T10:16:48;99822.15;;;24.09;52.24
49063;BME280;34876;51.464;-0.150;2023-09-18T10:19:25;99821.89;;;23.98;51.47
49063;BME280;34876;51.464;-0.150;2023-09-18T10:22:01;99821.13;;;24.13;52.05
49063;BME280;34876;51.464;-0.150;2023-09-18T10:24:34;99819.59;;;24.07;52.18
49063;BME280;34876;51.464;-0.150;2023-09-18T10:27:04;99818.90;;;24.14;51.95
49063;BME280;34876;51.464;-0.150;2023-09-18T10:29:34;99816.31;;;24.16;51.88
49063;BME280;34876;51.464;-0.150;2023-09-18T10:32:05;99809.37;;;24.12;51.99
49063;BME280;34876;51.464;-0.150;2023-09-18T10:34:35;99803.20;;;24.09;52.00
49063;BME280;34876;51.464;-0.150;2023-09-18T10:37:04;99798.13;;;24.17;51.80
49063;BME280;34876;51.464;-0.150;2023-09-18T10:39:35;99800.47;;;24.14;51.90
49063;BME280;34876;51.464;-0.150;2023-09-18T10:42:07;99799.23;;;24.07;52.06
49063;BME280;34876;51.464;-0.150;2023-09-18T10:44:37;99798.79;;;24.12;51.91
49063;BME280;34876;51.464;-0.150;2023-09-18T10:47:08;99802.65;;;24.12;51.91
49063;BME280;34876;51.464;-0.150;2023-09-18T10:49:38;99803.76;;;24.15;51.82
49063;BME280;34876;51.464;-0.150;2023-09-18T10:52:11;99799.28;;;24.22;51.62
49063;BME280;34876;51.464;-0.150;2023-09-18T10:54:40;99797.32;;;24.21;51.63
49063;BME280;34876;51.464;-0.150;2023-09-18T10:57:09;99794.24;;;24.22;51.58
49063;BME280;34876;51.464;-0.150;2023-09-18T10:59:44;99789.41;;;24.18;51.67
49063;BME280;34876;51.464;-0.150;2023-09-18T11:02:14;99781.27;;;24.25;51.49
49063;BME280;34876;51.464;-0.150;2023-09-18T11:04:45;99787.24;;;24.29;51.36
49063;BME280;34876;51.464;-0.150;2023-09-18T11:07:22;99782.39;;;24.30;51.32
49063;BME280;34876;51.464;-0.150;2023-09-18T11:09:51;99784.40;;;24.36;51.15
49063;BME280;34876;51.464;-0.150;2023-09-18T11:12:42;99789.19;;;24.30;51.33
49063;BME280;34876;51.464;-0.150;2023-09-18T11:15:25;99785.42;;;24.33;51.25
49063;BME280;34876;51.464;-0.150;2023-09-18T11:18:00;99789.01;;;24.34;51.20
49063;BME280;34876;51.464;-0.150;2023-09-18T11:20:29;99787.60;;;24.31;51.31
49063;BME280;34876;51.464;-0.150;2023-09-18T11:23:09;99794.81;;;24.27;51.40
49063;BME280;34876;51.464;-0.150;2023-09-18T11:25:40;99794.28;;;24.28;51.38
49063;BME280;34876;51.464;-0.150;2023-09-18T11:28:14;99789.31;;;24.29;51.34
49063;BME280;34876;51.464;-0.150;2023-09-18T11:30:49;99787.67;;;24.14;51.73
49063;BME280;34876;51.464;-0.150;2023-09-18T11:33:31;99788.24;;;24.23;51.50
49063;BME280;34876;51.464;-0.150;2023-09-18T11:36:06;99791.07;;;24.01;52.05
49063;BME280;34876;51.464;-0.150;2023-09-18T11:38:36;99789.04;;;24.16;51.70
49063;BME280;34876;51.464;-0.150;2023-09-18T11:41:22;99791.64;;;24.17;51.65
49063;BME280;34876;51.464;-0.150;2023-09-18T11:43:51;99793.21;;;24.16;51.67
49063;BME280;34876;51.464;-0.150;2023-09-18T11:46:21;99801.79;;;24.16;51.68
49063;BME280;34876;51.464;-0.150;2023-09-18T11:48:51;99802.34;;;24.18;51.62
49063;BME280;34876;51.464;-0.150;2023-09-18T11:51:22;99803.54;;;24.16;51.67
49063;BME280;34876;51.464;-0.150;2023-09-18T11:53:54;99808.76;;;24.17;51.62
49063;BME280;34876;51.464;-0.150;2023-09-18T11:56:24;99810.27;;;24.06;51.92
49063;BME280;34876;51.464;-0.150;2023-09-18T11:58:53;99809.59;;;24.03;51.99
49063;BME280;34876;51.464;-0.150;2023-09-18T12:01:22;99815.30;;;24.01;52.09
49063;BME280;34876;51.464;-0.150;2023-09-18T12:03:53;99816.18;;;24.08;51.86
49063;BME280;34876;51.464;-0.150;2023-09-18T12:06:23;99815.40;;;24.09;51.84
49063;BME280;34876;51.464;-0.150;2023-09-18T12:08:53;99819.36;;;24.04;51.97
49063;BME280;34876;51.464;-0.150;2023-09-18T12:11:22;99827.17;;;23.86;52.50
49063;BME280;34876;51.464;-0.150;2023-09-18T12:13:51;99827.66;;;24.02;52.05
49063;BME280;34876;51.464;-0.150;2023-09-18T12:16:21;99827.10;;;24.15;51.67
49063;BME280;34876;51.464;-0.150;2023-09-18T12:18:49;99820.61;;;24.17;51.59
49063;BME280;34876;51.464;-0.150;2023-09-18T12:21:19;99829.30;;;24.10;51.77
49063;BME280;34876;51.464;-0.150;2023-09-18T12:23:51;99841.06;;;23.84;52.44
49063;BME280;34876;51.464;-0.150;2023-09-18T12:26:23;99842.79;;;23.97;52.15
49063;BME280;34876;51.464;-0.150;2023-09-18T12:28:52;99848.23;;;23.89;52.43
49063;BME280;34876;51.464;-0.150;2023-09-18T12:31:21;99852.45;;;23.86;52.45
49063;BME280;34876;51.464;-0.150;2023-09-18T12:33:51;99854.92;;;23.97;52.20
49063;BME280;34876;51.464;-0.150;2023-09-18T12:36:21;99867.97;;;23.68;53.06
49063;BME280;34876;51.464;-0.150;2023-09-18T12:39:00;99868.50;;;23.66;54.25
49063;BME280;34876;51.464;-0.150;2023-09-18T12:41:29;99869.08;;;23.93;52.34
49063;BME280;34876;51.464;-0.150;2023-09-18T12:43:59;99870.38;;;24.01;52.37
49063;BME280;34876;51.464;-0.150;2023-09-18T12:46:29;99882.88;;;23.64;55.10
49063;BME280;34876;51.464;-0.150;2023-09-18T12:48:58;99884.06;;;23.54;53.59
49063;BME280;34876;51.464;-0.150;2023-09-18T12:51:31;99877.65;;;23.96;52.29
49063;BME280;34876;51.464;-0.150;2023-09-18T12:54:01;99878.18;;;24.02;53.34
49063;BME280;34876;51.464;-0.150;2023-09-18T12:56:30;99880.23;;;23.98;52.21
49063;BME280;34876;51.464;-0.150;2023-09-18T12:58:59;99879.42;;;23.96;52.28
49063;BME280;34876;51.464;-0.150;2023-09-18T13:01:28;99871.52;;;23.89;52.46
49063;BME280;34876;51.464;-0.150;2023-09-18T13:03:57;99878.80;;;23.83;52.59